Time;durP1;ratioP1;P1;durP2;ratioP2;P2;SDS_P1;SDS_P2;PMS_P1;PMS_P2;Temp;Humidity;BMP_temperature;BMP_pressure;BME280_temperature;BME280_humidity;BME280_pressure;Samples;Min_cycle;Max_cycle;Signal;HPM_P1;HPM_P2
2023/07/09 00:00:15;;;;;;;2.00;1.50;;;;;;;;;;12732150;23;20047;-90
2023/07/09 00:05:19;;;;;;;2.50;2.03;;;;;;;;;;12733493;23;20030;-89
2023/07/09 00:10:23;;;;;;;3.00;1.50;;;;;;;;;;12706554;23;20535;-90
2023/07/09 00:15:27;;;;;;;1.27;1.15;;;;;;;;;;12732779;23;20025;-88
2023/07/09 00:20:32;;;;;;;2.88;1.63;;;;;;;;;;12705891;23;20025;-87
2023/07/09 00:25:36;;;;;;;2.60;1.30;;;;;;;;;;12731287;23;20025;-87
2023/07/09 00:30:39;;;;;;;2.30;1.63;;;;;;;;;;12731722;23;20025;-87
2023/07/09 00:35:46;;;;;;;2.72;1.63;;;;;;;;;;12729356;23;20045;-87
2023/07/09 00:41:01;;;;;;;3.65;1.85;;;;;;;;;;12704658;23;20021;-86
2023/07/09 00:46:18;;;;;;;2.47;1.33;;;;;;;;;;12706984;23;20029;-86
2023/07/09 00:51:24;;;;;;;2.53;1.58;;;;;;;;;;12733096;23;20482;-87
2023/07/09 00:56:31;;;;;;;2.35;1.67;;;;;;;;;;12732316;23;20031;-86
2023/07/09 01:01:36;;;;;;;2.70;1.85;;;;;;;;;;12708727;23;20406;-87
2023/07/09 01:06:46;;;;;;;3.33;1.70;;;;;;;;;;12732949;23;20026;-87
2023/07/09 01:11:50;;;;;;;2.63;1.75;;;;;;;;;;12734467;23;20304;-88
2023/07/09 01:16:57;;;;;;;2.72;1.50;;;;;;;;;;12732851;23;20411;-87
2023/07/09 01:22:03;;;;;;;2.45;1.42;;;;;;;;;;12708353;23;20463;-86
2023/07/09 01:27:07;;;;;;;;;;;;;;;;;;12708791;23;20028;-87
2023/07/09 01:32:11;;;;;;;2.45;1.20;;;;;;;;;;12708006;23;19916;-86
2023/07/09 01:37:17;;;;;;;1.98;1.60;;;;;;;;;;12731630;23;20084;-87
2023/07/09 01:42:23;;;;;;;1.90;1.40;;;;;;;;;;12731304;23;20044;-87
2023/07/09 01:47:26;;;;;;;2.33;1.47;;;;;;;;;;12708006;23;20030;-87
2023/07/09 01:52:33;;;;;;;3.40;1.67;;;;;;;;;;12707903;23;20272;-87
2023/07/09 01:57:40;;;;;;;2.20;1.48;;;;;;;;;;12731346;23;20507;-87
2023/07/09 02:02:45;;;;;;;2.40;1.70;;;;;;;;;;12707395;23;20014;-87
2023/07/09 02:07:51;;;;;;;1.95;1.42;;;;;;;;;;12707731;23;20463;-86
2023/07/09 02:12:55;;;;;;;2.60;1.40;;;;;;;;;;12731986;23;20324;-87
2023/07/09 02:18:01;;;;;;;2.50;1.25;;;;;;;;;;12732154;23;20026;-87
2023/07/09 02:23:07;;;;;;;3.63;1.55;;;;;;;;;;12708149;23;20362;-87
2023/07/09 02:28:11;;;;;;;2.97;1.52;;;;;;;;;;12732903;23;20072;-86
2023/07/09 02:33:14;;;;;;;3.67;1.55;;;;;;;;;;12732096;23;20076;-87
2023/07/09 02:38:19;;;;;;;1.85;1.27;;;;;;;;;;12732577;23;20021;-86
2023/07/09 02:43:23;;;;;;;3.25;1.63;;;;;;;;;;12751788;23;20025;-87
2023/07/09 02:48:26;;;;;;;1.60;1.30;;;;;;;;;;12732755;23;20025;-87
2023/07/09 02:53:31;;;;;;;2.13;1.52;;;;;;;;;;12706912;23;20481;-87
2023/07/09 02:58:34;;;;;;;2.70;1.58;;;;;;;;;;12706879;23;20494;-86
2023/07/09 03:03:38;;;;;;;2.92;1.77;;;;;;;;;;12705339;23;20714;-86
2023/07/09 03:08:43;;;;;;;3.15;1.50;;;;;;;;;;12706177;23;20022;-86
2023/07/09 03:13:47;;;;;;;2.30;1.58;;;;;;;;;;12705751;23;20029;-86
2023/07/09 03:18:50;;;;;;;2.97;1.83;;;;;;;;;;12730974;23;20104;-86
2023/07/09 03:23:56;;;;;;;2.08;1.50;;;;;;;;;;12747126;23;20029;-86
2023/07/09 03:28:59;;;;;;;5.43;1.87;;;;;;;;;;12730356;23;20061;-86
2023/07/09 03:34:04;;;;;;;2.80;1.90;;;;;;;;;;12706262;23;20307;-86
2023/07/09 03:39:09;;;;;;;2.20;1.65;;;;;;;;;;12705499;23;20072;-87
2023/07/09 03:44:12;;;;;;;2.55;1.80;;;;;;;;;;12729114;23;20082;-88
2023/07/09 03:49:16;;;;;;;3.10;1.88;;;;;;;;;;12704631;23;20025;-87
2023/07/09 03:54:21;;;;;;;3.00;1.75;;;;;;;;;;12728789;23;20086;-87
2023/07/09 03:59:24;;;;;;;2.80;1.58;;;;;;;;;;12730084;23;20032;-87
2023/07/09 04:04:28;;;;;;;3.40;1.70;;;;;;;;;;12704591;23;20029;-87
2023/07/09 04:09:33;;;;;;;2.55;1.80;;;;;;;;;;12730939;23;20459;-87
2023/07/09 04:14:37;;;;;;;2.65;1.45;;;;;;;;;;12730994;23;20025;-88
2023/07/09 04:19:40;;;;;;;2.65;1.80;;;;;;;;;;12705227;23;20391;-87
2023/07/09 04:24:45;;;;;;;2.88;1.63;;;;;;;;;;12731002;23;20025;-87
2023/07/09 04:29:50;;;;;;;2.27;1.30;;;;;;;;;;12704772;23;20644;-88
2023/07/09 04:34:54;;;;;;;2.67;1.50;;;;;;;;;;12731116;23;20025;-87
2023/07/09 04:39:59;;;;;;;1.77;1.40;;;;;;;;;;12730409;23;20090;-88
2023/07/09 04:45:03;;;;;;;1.58;1.38;;;;;;;;;;12704392;23;20485;-87
2023/07/09 04:50:08;;;;;;;2.45;1.63;;;;;;;;;;12704858;23;20030;-88
2023/07/09 04:55:13;;;;;;;2.50;1.60;;;;;;;;;;12730751;23;20017;-87
2023/07/09 05:00:17;;;;;;;2.58;1.75;;;;;;;;;;12728615;23;20462;-87
2023/07/09 05:05:20;;;;;;;1.98;1.27;;;;;;;;;;12728731;23;20036;-87
2023/07/09 05:10:25;;;;;;;1.85;1.40;;;;;;;;;;12704037;23;20036;-87
2023/07/09 05:15:29;;;;;;;1.73;1.20;;;;;;;;;;12729681;23;20056;-88
2023/07/09 05:20:32;;;;;;;2.70;1.65;;;;;;;;;;12737909;23;20081;-87
2023/07/09 05:25:37;;;;;;;1.95;1.38;;;;;;;;;;12703899;23;20407;-88
2023/07/09 05:30:43;;;;;;;2.22;1.60;;;;;;;;;;12730592;23;20021;-87
2023/07/09 05:35:47;;;;;;;4.78;1.92;;;;;;;;;;12732091;23;20483;-88
2023/07/09 05:41:01;;;;;;;2.40;1.45;;;;;;;;;;12731510;23;20025;-86
2023/07/09 05:46:05;;;;;;;2.85;1.60;;;;;;;;;;12739665;23;20026;-87
2023/07/09 05:51:09;;;;;;;3.25;1.75;;;;;;;;;;12733136;23;20117;-87
2023/07/09 05:56:14;;;;;;;1.75;1.45;;;;;;;;;;12706851;23;20035;-88
2023/07/09 06:01:17;;;;;;;2.40;1.40;;;;;;;;;;12733128;23;20025;-88
2023/07/09 06:06:21;;;;;;;2.05;1.30;;;;;;;;;;12731620;23;20025;-88
2023/07/09 06:11:26;;;;;;;3.25;1.58;;;;;;;;;;12707276;23;20362;-88
2023/07/09 06:16:30;;;;;;;1.77;1.58;;;;;;;;;;12707048;23;20080;-87
2023/07/09 06:21:34;;;;;;;2.20;1.40;;;;;;;;;;12731272;23;20025;-87
2023/07/09 06:26:39;;;;;;;2.05;1.52;;;;;;;;;;12707189;23;20025;-88
2023/07/09 06:31:42;;;;;;;2.10;1.45;;;;;;;;;;12707159;23;20025;-86
2023/07/09 06:36:46;;;;;;;2.90;1.40;;;;;;;;;;12732041;23;20026;-87
2023/07/09 06:41:51;;;;;;;2.67;1.40;;;;;;;;;;12732532;23;20037;-87
2023/07/09 06:47:13;;;;;;;2.05;1.50;;;;;;;;;;12734251;23;20363;-87
2023/07/09 06:52:17;;;;;;;3.53;1.67;;;;;;;;;;12733690;23;20031;-88
2023/07/09 06:57:22;;;;;;;3.30;1.83;;;;;;;;;;12730383;23;20029;-86
2023/07/09 07:02:25;;;;;;;2.78;1.90;;;;;;;;;;12706469;23;20486;-88
2023/07/09 07:07:29;;;;;;;1.75;1.48;;;;;;;;;;12705604;23;20021;-88
2023/07/09 07:12:43;;;;;;;2.17;1.48;;;;;;;;;;12705246;23;20026;-88
2023/07/09 07:17:47;;;;;;;3.43;2.00;;;;;;;;;;12704825;23;20076;-88
2023/07/09 07:22:51;;;;;;;2.38;1.45;;;;;;;;;;12704571;23;20129;-88
2023/07/09 07:27:55;;;;;;;1.38;1.23;;;;;;;;;;12703202;23;20072;-88
2023/07/09 07:32:59;;;;;;;4.53;2.80;;;;;;;;;;12704375;23;20022;-87
2023/07/09 07:38:02;;;;;;;4.15;2.42;;;;;;;;;;12730795;23;20017;-88
2023/07/09 07:43:07;;;;;;;2.53;1.70;;;;;;;;;;12704791;23;20691;-88
2023/07/09 07:48:11;;;;;;;1.48;1.25;;;;;;;;;;12705772;23;20449;-88
2023/07/09 07:53:15;;;;;;;1.73;1.30;;;;;;;;;;12734320;23;20076;-88
2023/07/09 07:58:19;;;;;;;2.25;1.30;;;;;;;;;;12733310;23;20316;-88
2023/07/09 08:03:23;;;;;;;1.63;1.00;;;;;;;;;;12703923;23;20017;-88
2023/07/09 08:08:27;;;;;;;1.90;1.33;;;;;;;;;;12729009;23;20136;-88
2023/07/09 08:13:32;;;;;;;2.00;1.05;;;;;;;;;;12706082;23;20013;-88
2023/07/09 08:18:36;;;;;;;1.55;0.90;;;;;;;;;;12729354;23;20356;-88
2023/07/09 08:23:40;;;;;;;1.98;1.27;;;;;;;;;;12706241;23;20036;-89
2023/07/09 08:28:56;;;;;;;2.60;1.67;;;;;;;;;;12733659;23;20028;-89
2023/07/09 08:34:00;;;;;;;2.63;1.63;;;;;;;;;;12732024;23;20104;-88
2023/07/09 08:39:04;;;;;;;5.90;2.60;;;;;;;;;;12728655;23;20061;-88
2023/07/09 08:44:25;;;;;;;2.93;1.83;;;;;;;;;;12730281;23;20542;-89
2023/07/09 08:49:38;;;;;;;3.13;2.28;;;;;;;;;;12743873;23;20037;-88
2023/07/09 08:54:43;;;;;;;3.25;2.33;;;;;;;;;;12703288;23;20013;-87
2023/07/09 08:59:49;;;;;;;3.88;2.20;;;;;;;;;;12725276;23;20035;-88
2023/07/09 09:04:53;;;;;;;2.70;1.92;;;;;;;;;;12703946;23;20064;-88
2023/07/09 09:10:01;;;;;;;2.70;1.80;;;;;;;;;;12744017;23;20057;-89
2023/07/09 09:15:15;;;;;;;2.25;1.25;;;;;;;;;;12731160;23;20021;-87
2023/07/09 09:20:22;;;;;;;2.63;2.05;;;;;;;;;;12705792;23;20072;-86
2023/07/09 09:25:29;;;;;;;3.28;1.92;;;;;;;;;;12741313;23;20034;-86
2023/07/09 09:30:34;;;;;;;3.38;1.80;;;;;;;;;;12708509;23;20025;-86
2023/07/09 09:35:38;;;;;;;;;;;;;;;;;;12705742;23;20025;-87
2023/07/09 09:40:42;;;;;;;3.05;2.28;;;;;;;;;;12704140;23;19916;-86
2023/07/09 09:45:49;;;;;;;4.55;2.58;;;;;;;;;;12654390;23;20017;-87
2023/07/09 09:50:52;;;;;;;4.20;2.20;;;;;;;;;;12733709;23;20026;-91
2023/07/09 09:55:59;;;;;;;3.28;2.50;;;;;;;;;;12736436;23;20351;-90
2023/07/09 10:01:04;;;;;;;4.25;1.83;;;;;;;;;;12711335;23;20025;-91
2023/07/09 10:06:15;;;;;;;3.53;1.60;;;;;;;;;;12759020;23;20019;-91
2023/07/09 10:11:27;;;;;;;4.40;2.20;;;;;;;;;;12735571;23;20025;-90
2023/07/09 10:16:39;;;;;;;3.33;1.67;;;;;;;;;;12708209;23;20029;-91
2023/07/09 10:21:47;;;;;;;1.48;1.20;;;;;;;;;;12708489;23;20022;-90
2023/07/09 10:26:54;;;;;;;1.52;1.25;;;;;;;;;;12734734;23;20092;-91
2023/07/09 10:32:10;;;;;;;2.53;1.65;;;;;;;;;;12734761;23;20102;-91
2023/07/09 10:37:31;;;;;;;2.20;1.50;;;;;;;;;;12757746;23;20507;-91
2023/07/09 10:42:40;;;;;;;2.00;1.30;;;;;;;;;;12732565;23;20541;-91
2023/07/09 10:47:48;;;;;;;2.40;1.40;;;;;;;;;;12765429;23;20021;-90
2023/07/09 10:52:55;;;;;;;1.80;1.50;;;;;;;;;;12766505;23;20120;-91
2023/07/09 10:58:01;;;;;;;2.20;1.67;;;;;;;;;;12730988;23;20336;-91
2023/07/09 11:03:15;;;;;;;1.42;1.30;;;;;;;;;;12735512;23;20037;-90
2023/07/09 11:08:24;;;;;;;2.35;1.40;;;;;;;;;;12749943;23;20076;-92
2023/07/09 11:13:34;;;;;;;1.85;1.42;;;;;;;;;;12708939;23;20028;-91
2023/07/09 11:18:56;;;;;;;1.70;1.35;;;;;;;;;;12705377;23;20025;-91
2023/07/09 11:24:01;;;;;;;1.90;1.50;;;;;;;;;;12706453;23;20033;-90
2023/07/09 11:29:16;;;;;;;2.08;1.67;;;;;;;;;;12704418;23;20034;-91
2023/07/09 11:34:27;;;;;;;2.22;1.17;;;;;;;;;;12755515;23;20340;-91
2023/07/09 11:39:42;;;;;;;2.38;1.45;;;;;;;;;;12704627;23;20032;-90
2023/07/09 11:44:48;;;;;;;2.03;1.63;;;;;;;;;;12705089;23;20021;-90
2023/07/09 11:49:59;;;;;;;2.40;1.33;;;;;;;;;;12727743;23;20076;-89
2023/07/09 11:55:20;;;;;;;2.78;1.65;;;;;;;;;;12705883;23;20026;-91
2023/07/09 12:00:24;;;;;;;2.95;1.80;;;;;;;;;;12726890;23;20026;-91
2023/07/09 12:05:31;;;;;;;1.85;1.63;;;;;;;;;;12707136;23;20032;-91
2023/07/09 12:10:37;;;;;;;2.60;1.60;;;;;;;;;;12705676;23;20467;-91
2023/07/09 12:15:41;;;;;;;2.05;1.67;;;;;;;;;;12706639;23;20490;-91
2023/07/09 12:20:50;;;;;;;3.42;1.50;;;;;;;;;;12738882;23;20471;-91
2023/07/09 12:25:54;;;;;;;1.75;1.40;;;;;;;;;;12707286;23;20494;-92
2023/07/09 12:30:58;;;;;;;3.47;1.70;;;;;;;;;;12737037;23;20022;-91
2023/07/09 12:36:06;;;;;;;1.55;1.38;;;;;;;;;;12706435;23;20017;-91
2023/07/09 12:41:20;;;;;;;1.92;1.27;;;;;;;;;;12706664;23;20026;-92
2023/07/09 12:46:24;;;;;;;1.97;1.20;;;;;;;;;;12736117;23;20448;-92
2023/07/09 12:51:31;;;;;;;3.35;1.63;;;;;;;;;;12735069;23;20108;-92
2023/07/09 12:56:36;;;;;;;2.22;1.45;;;;;;;;;;12710413;23;20112;-91
2023/07/09 13:01:40;;;;;;;2.63;1.70;;;;;;;;;;12732227;23;20029;-91
2023/07/09 13:06:46;;;;;;;2.08;1.42;;;;;;;;;;12759151;23;20041;-92
2023/07/09 13:11:50;;;;;;;2.13;1.50;;;;;;;;;;12810642;23;20040;-91
2023/07/09 13:17:02;;;;;;;2.65;1.45;;;;;;;;;;12766774;23;20022;-91
2023/07/09 13:22:12;;;;;;;1.70;1.33;;;;;;;;;;12750700;23;20217;-91
2023/07/09 13:27:16;;;;;;;2.35;1.52;;;;;;;;;;12758462;23;20084;-91
2023/07/09 13:32:19;;;;;;;2.33;1.65;;;;;;;;;;12736121;23;20032;-92
2023/07/09 13:37:24;;;;;;;;;;;;;;;;;;12732079;23;20075;-92
2023/07/09 13:42:28;;;;;;;3.05;1.33;;;;;;;;;;12793092;23;19967;-92
2023/07/09 13:47:33;;;;;;;5.07;2.97;;;;;;;;;;12706236;23;20022;-91
2023/07/09 13:52:38;;;;;;;4.03;1.88;;;;;;;;;;12706909;23;20119;-92
2023/07/09 13:57:41;;;;;;;2.33;1.70;;;;;;;;;;12704751;23;20074;-91
2023/07/09 14:02:46;;;;;;;;;;;;;;;;;;12757427;23;20021;-91
2023/07/09 14:07:51;;;;;;;2.80;1.58;;;;;;;;;;12705367;23;20412;-92
2023/07/09 14:12:56;;;;;;;1.90;1.60;;;;;;;;;;12756412;23;20026;-91
2023/07/09 14:17:59;;;;;;;2.60;1.60;;;;;;;;;;12752610;23;20032;-91
2023/07/09 14:23:04;;;;;;;2.78;1.77;;;;;;;;;;12756490;23;20024;-91
2023/07/09 14:28:13;;;;;;;2.40;1.73;;;;;;;;;;12704822;23;20088;-91
2023/07/09 14:33:18;;;;;;;3.28;1.58;;;;;;;;;;12734619;23;20057;-91
2023/07/09 14:38:27;;;;;;;2.00;1.35;;;;;;;;;;12704742;23;20649;-92
2023/07/09 14:43:30;;;;;;;2.30;1.33;;;;;;;;;;12707755;23;20021;-93
2023/07/09 14:48:34;;;;;;;2.80;1.40;;;;;;;;;;12754759;23;20025;-92
2023/07/09 14:53:38;;;;;;;3.40;1.77;;;;;;;;;;12757275;23;20021;-91
2023/07/09 14:58:42;;;;;;;1.75;1.42;;;;;;;;;;12705186;23;20419;-92
2023/07/09 15:03:45;;;;;;;2.63;1.90;;;;;;;;;;12733953;23;20076;-92
2023/07/09 15:08:50;;;;;;;1.70;1.50;;;;;;;;;;12704926;23;20033;-92
2023/07/09 15:13:54;;;;;;;2.60;1.60;;;;;;;;;;12757380;23;20133;-92
2023/07/09 15:18:58;;;;;;;8.07;1.80;;;;;;;;;;12748570;23;20025;-92
2023/07/09 15:24:03;;;;;;;4.90;2.80;;;;;;;;;;12708802;23;20113;-91
2023/07/09 15:29:14;;;;;;;3.80;2.25;;;;;;;;;;12757224;23;20352;-90
2023/07/09 15:34:18;;;;;;;3.15;2.42;;;;;;;;;;12758971;23;20029;-91
2023/07/09 15:39:23;;;;;;;6.07;2.30;;;;;;;;;;12757589;23;20025;-91
2023/07/09 15:44:27;;;;;;;4.95;2.50;;;;;;;;;;12734245;23;20021;-91
2023/07/09 15:49:31;;;;;;;2.90;1.97;;;;;;;;;;12734946;23;20080;-91
2023/07/09 15:54:36;;;;;;;6.28;2.50;;;;;;;;;;12758968;23;20497;-91
2023/07/09 15:59:41;;;;;;;2.92;1.77;;;;;;;;;;12757245;23;20471;-91
2023/07/09 16:04:46;;;;;;;5.80;1.50;;;;;;;;;;12758664;23;20023;-91
2023/07/09 16:09:51;;;;;;;;;;;;;;;;;;12737097;23;20025;-91
2023/07/09 16:14:55;;;;;;;1.83;1.20;;;;;;;;;;12735249;23;19921;-91
2023/07/09 16:19:59;;;;;;;1.65;1.05;;;;;;;;;;12757639;23;20035;-91
2023/07/09 16:25:15;;;;;;;5.15;2.03;;;;;;;;;;12710809;23;20037;-91
2023/07/09 16:30:22;;;;;;;1.70;1.40;;;;;;;;;;12708179;23;20088;-91
2023/07/09 16:35:29;;;;;;;4.85;1.40;;;;;;;;;;12737110;23;20053;-84
2023/07/09 16:40:34;;;;;;;3.45;1.42;;;;;;;;;;12778451;23;20028;-85
2023/07/09 16:45:37;;;;;;;3.13;1.85;;;;;;;;;;12799766;23;20028;-85
2023/07/09 16:50:41;;;;;;;2.00;1.52;;;;;;;;;;12782541;23;20056;-84
2023/07/09 16:55:46;;;;;;;2.53;1.20;;;;;;;;;;12754458;23;20039;-83
2023/07/09 17:00:49;;;;;;;;;;;;;;;;;;12759134;23;20025;-87
2023/07/09 17:05:54;;;;;;;2.60;1.52;;;;;;;;;;12757591;23;20336;-87
2023/07/09 17:11:02;;;;;;;3.97;1.80;;;;;;;;;;12760313;23;20028;-86
2023/07/09 17:16:06;;;;;;;2.58;1.40;;;;;;;;;;12783198;23;20017;-85
2023/07/09 17:21:09;;;;;;;2.30;1.50;;;;;;;;;;12835023;23;20387;-86
2023/07/09 17:26:19;;;;;;;2.28;1.55;;;;;;;;;;12773912;23;20032;-87
2023/07/09 17:31:22;;;;;;;5.22;1.27;;;;;;;;;;12788448;23;20017;-85
2023/07/09 17:36:26;;;;;;;2.15;1.30;;;;;;;;;;12786188;23;20025;-85
2023/07/09 17:41:30;;;;;;;3.65;1.73;;;;;;;;;;12792115;23;20025;-85
2023/07/09 17:46:34;;;;;;;2.92;1.60;;;;;;;;;;12848967;23;20024;-85
2023/07/09 17:51:37;;;;;;;1.75;1.50;;;;;;;;;;12823171;23;20052;-86
2023/07/09 17:56:42;;;;;;;1.85;1.30;;;;;;;;;;12847134;23;20048;-87
2023/07/09 18:01:50;;;;;;;2.75;1.30;;;;;;;;;;12824303;23;20024;-85
2023/07/09 18:06:53;;;;;;;4.20;1.30;;;;;;;;;;12853074;23;20138;-86
2023/07/09 18:11:58;;;;;;;2.92;1.00;;;;;;;;;;12823764;23;20027;-85
2023/07/09 18:17:03;;;;;;;5.13;1.30;;;;;;;;;;12821968;23;20076;-83
2023/07/09 18:22:17;;;;;;;1.40;1.00;;;;;;;;;;12814250;23;20025;-83
2023/07/09 18:27:25;;;;;;;2.25;1.20;;;;;;;;;;12821519;23;20079;-83
2023/07/09 18:32:29;;;;;;;2.83;1.20;;;;;;;;;;12820877;23;20031;-83
2023/07/09 18:37:33;;;;;;;3.27;1.20;;;;;;;;;;12818004;23;20025;-83
2023/07/09 18:42:41;;;;;;;2.95;1.10;;;;;;;;;;12820087;23;20020;-83
2023/07/09 18:47:45;;;;;;;2.03;1.17;;;;;;;;;;12844871;23;20103;-84
2023/07/09 18:52:48;;;;;;;2.33;1.38;;;;;;;;;;12845439;23;20043;-83
2023/07/09 18:57:54;;;;;;;2.08;1.23;;;;;;;;;;12834463;23;20773;-83
2023/07/09 19:02:57;;;;;;;2.60;1.58;;;;;;;;;;12817833;23;20052;-83
2023/07/09 19:08:11;;;;;;;1.95;1.50;;;;;;;;;;12840540;23;20087;-83
2023/07/09 19:13:18;;;;;;;2.65;1.20;;;;;;;;;;12841813;23;20017;-83
2023/07/09 19:18:26;;;;;;;3.70;1.40;;;;;;;;;;12844569;23;20027;-83
2023/07/09 19:23:29;;;;;;;4.63;1.58;;;;;;;;;;12836808;23;20024;-83
2023/07/09 19:28:34;;;;;;;4.72;1.25;;;;;;;;;;12854148;23;20020;-84
2023/07/09 19:33:39;;;;;;;3.15;1.48;;;;;;;;;;12843084;23;20052;-83
2023/07/09 19:38:44;;;;;;;3.10;1.35;;;;;;;;;;12822263;23;20693;-84
2023/07/09 19:43:49;;;;;;;2.03;1.13;;;;;;;;;;12818137;23;20732;-83
2023/07/09 19:48:53;;;;;;;1.93;1.30;;;;;;;;;;12832730;23;20029;-83
2023/07/09 19:53:56;;;;;;;3.17;1.98;;;;;;;;;;12843450;23;20252;-83
2023/07/09 19:59:01;;;;;;;4.03;1.38;;;;;;;;;;12812456;23;20024;-84
2023/07/09 20:04:06;;;;;;;3.07;1.20;;;;;;;;;;12861540;23;20036;-83
2023/07/09 20:09:13;;;;;;;2.53;1.47;;;;;;;;;;12848136;23;20028;-84
2023/07/09 20:14:21;;;;;;;3.05;1.48;;;;;;;;;;12847202;23;20035;-84
2023/07/09 20:19:24;;;;;;;2.33;1.60;;;;;;;;;;12844424;23;20013;-84
2023/07/09 20:24:29;;;;;;;3.15;1.52;;;;;;;;;;12837954;23;20040;-85
2023/07/09 20:29:34;;;;;;;2.00;1.70;;;;;;;;;;12849512;23;20028;-85
2023/07/09 20:34:37;;;;;;;2.13;1.43;;;;;;;;;;12830656;23;20075;-84
2023/07/09 20:39:40;;;;;;;2.83;1.73;;;;;;;;;;12831906;23;20231;-85
2023/07/09 20:44:45;;;;;;;2.60;1.98;;;;;;;;;;12835387;23;20361;-86
2023/07/09 20:49:49;;;;;;;3.25;1.48;;;;;;;;;;12837158;23;20028;-85
2023/07/09 20:54:53;;;;;;;2.63;1.50;;;;;;;;;;12848328;23;20360;-84
2023/07/09 20:59:57;;;;;;;2.60;1.70;;;;;;;;;;12847410;23;20017;-86
2023/07/09 21:05:01;;;;;;;2.40;1.48;;;;;;;;;;12839506;23;20460;-85
2023/07/09 21:10:05;;;;;;;2.33;1.70;;;;;;;;;;12851803;23;20041;-85
2023/07/09 21:15:10;;;;;;;3.85;1.40;;;;;;;;;;12851692;23;20058;-91
2023/07/09 21:20:16;;;;;;;2.63;1.58;;;;;;;;;;12839304;23;20365;-86
2023/07/09 21:25:20;;;;;;;;;;;;;;;;;;12841401;23;20587;-84
2023/07/09 21:30:27;;;;;;;1.92;1.25;;;;;;;;;;12841020;23;19920;-85
2023/07/09 21:35:31;;;;;;;1.85;1.35;;;;;;;;;;12813389;23;20024;-85
2023/07/09 21:40:36;;;;;;;4.72;1.40;;;;;;;;;;12814337;23;20075;-85
2023/07/09 21:45:43;;;;;;;2.17;1.50;;;;;;;;;;12834809;23;20029;-85
2023/07/09 21:50:47;;;;;;;1.52;1.17;;;;;;;;;;12839181;23;20021;-85
2023/07/09 21:55:51;;;;;;;3.55;1.40;;;;;;;;;;12797774;23;20024;-86
2023/07/09 22:00:55;;;;;;;2.35;1.20;;;;;;;;;;12753013;23;20465;-86
2023/07/09 22:05:59;;;;;;;1.95;1.50;;;;;;;;;;12873808;23;20439;-85
2023/07/09 22:11:02;;;;;;;5.05;2.00;;;;;;;;;;12915137;22;20020;-85
2023/07/09 22:16:10;;;;;;;3.33;1.70;;;;;;;;;;12884780;23;20024;-85
2023/07/09 22:21:13;;;;;;;3.58;2.10;;;;;;;;;;12876754;22;20016;-85
2023/07/09 22:26:18;;;;;;;2.28;1.25;;;;;;;;;;12875448;23;20032;-84
2023/07/09 22:31:23;;;;;;;2.45;1.50;;;;;;;;;;12874762;22;20039;-84
